Time;durP1;ratioP1;P1;durP2;ratioP2;P2;SDS_P1;SDS_P2;PMS_P1;PMS_P2;Temp;Humidity;BMP_temperature;BMP_pressure;BME280_temperature;BME280_humidity;BME280_pressure;Samples;Min_cycle;Max_cycle;Signal;HPM_P1;HPM_P2
2021/07/08 00:00:59;;;;;;;4.93;0.57;;;;;;;17.21;72.35;100799.05;126000;1093;22778;-58
2021/07/08 00:03:31;;;;;;;3.85;0.55;;;;;;;17.23;72.32;100799.30;125976;1093;22751;-59
2021/07/08 00:06:02;;;;;;;2.40;0.60;;;;;;;17.23;72.56;100796.48;126010;1093;22739;-56
2021/07/08 00:08:35;;;;;;;2.45;0.55;;;;;;;17.19;72.91;100796.74;126011;1093;22774;-59
2021/07/08 00:11:06;;;;;;;2.57;0.60;;;;;;;17.16;72.60;100792.11;125994;1093;22867;-58
2021/07/08 00:13:38;;;;;;;3.00;0.60;;;;;;;17.14;72.87;100797.50;125956;1093;24458;-59
2021/07/08 00:16:10;;;;;;;5.17;0.60;;;;;;;17.13;73.11;100800.83;126119;1093;24314;-58
2021/07/08 00:18:41;;;;;;;3.70;0.55;;;;;;;17.12;73.13;100793.64;125895;1093;22778;-56
2021/07/08 00:21:13;;;;;;;2.15;0.40;;;;;;;17.09;73.19;100792.60;125899;1093;22848;-59
2021/07/08 00:23:44;;;;;;;2.30;0.50;;;;;;;17.06;73.27;100795.69;126032;1092;22835;-58
2021/07/08 00:26:16;;;;;;;2.90;0.60;;;;;;;17.05;73.30;100796.98;126031;1093;23251;-58
2021/07/08 00:28:47;;;;;;;3.65;0.60;;;;;;;17.03;73.31;100797.47;126027;1093;22944;-59
2021/07/08 00:31:20;;;;;;;4.23;0.60;;;;;;;17.01;73.57;100797.20;125932;1093;24630;-58
2021/07/08 00:33:52;;;;;;;4.30;0.70;;;;;;;17.00;73.59;100801.33;126102;1093;24423;-56
2021/07/08 00:36:24;;;;;;;1.87;0.50;;;;;;;17.01;73.63;100791.56;126072;1093;25443;-58
2021/07/08 00:38:56;;;;;;;2.55;0.50;;;;;;;17.01;73.95;100799.28;125901;1093;22739;-58
2021/07/08 00:41:28;;;;;;;3.45;0.70;;;;;;;17.01;74.09;100796.46;126067;1093;22750;-59
2021/07/08 00:43:59;;;;;;;1.80;0.60;;;;;;;17.02;73.73;100797.98;125929;1093;22781;-57
2021/07/08 00:46:31;;;;;;;2.30;0.60;;;;;;;17.04;73.50;100792.61;125930;1093;22778;-56
2021/07/08 00:49:03;;;;;;;3.10;0.60;;;;;;;17.06;73.77;100799.28;126004;1093;25929;-60
2021/07/08 00:51:34;;;;;;;4.15;0.60;;;;;;;17.10;73.95;100810.30;125871;1093;22783;-59
2021/07/08 00:54:10;;;;;;;2.50;0.60;;;;;;;17.13;73.66;100798.02;125836;1093;22802;-61
2021/07/08 00:56:41;;;;;;;4.55;0.70;;;;;;;17.16;73.58;100794.93;125924;1093;22777;-58
2021/07/08 00:59:12;;;;;;;4.50;0.80;;;;;;;17.20;73.42;100791.84;125929;1093;22754;-60
2021/07/08 01:01:44;;;;;;;6.40;0.80;;;;;;;17.24;73.49;100803.65;125920;1092;22738;-57
2021/07/08 01:04:17;;;;;;;4.10;0.60;;;;;;;17.26;73.51;100806.73;126251;1093;24426;-59
2021/07/08 01:06:49;;;;;;;3.75;0.80;;;;;;;17.26;73.51;100812.38;126031;1093;25996;-59
2021/07/08 01:09:20;;;;;;;4.20;0.70;;;;;;;17.26;73.61;100810.33;126177;1093;22848;-58
2021/07/08 01:11:52;;;;;;;2.50;0.80;;;;;;;17.26;73.74;100804.69;125899;1093;22813;-58
2021/07/08 01:14:23;;;;;;;3.03;0.80;;;;;;;17.25;73.67;100802.38;125898;1092;22770;-58
2021/07/08 01:16:54;;;;;;;2.25;0.65;;;;;;;17.24;74.00;100804.42;125944;1093;26507;-58
2021/07/08 01:19:27;;;;;;;7.80;0.80;;;;;;;17.24;73.91;100814.94;125917;1092;25980;-60
2021/07/08 01:21:59;;;;;;;5.20;0.80;;;;;;;17.22;74.18;100818.28;125964;1093;27276;-56
2021/07/08 01:24:31;;;;;;;3.10;1.05;;;;;;;17.19;73.86;100807.25;125997;1093;25861;-58
2021/07/08 01:27:04;;;;;;;2.77;0.80;;;;;;;17.18;74.02;100805.70;126012;1093;22778;-61
2021/07/08 01:29:35;;;;;;;3.35;0.90;;;;;;;17.19;74.35;100801.61;126106;1093;22809;-56
2021/07/08 01:32:08;;;;;;;2.95;0.90;;;;;;;17.19;74.24;100807.25;125962;1093;26343;-60
2021/07/08 01:34:40;;;;;;;3.30;0.70;;;;;;;17.16;74.27;100803.39;126240;1093;22892;-59
2021/07/08 01:37:12;;;;;;;5.45;0.90;;;;;;;17.16;74.51;100805.44;126006;1093;22775;-58
2021/07/08 01:39:44;;;;;;;5.40;1.00;;;;;;;17.15;74.69;100793.41;126080;1093;22755;-58
2021/07/08 01:42:16;;;;;;;3.70;0.85;;;;;;;17.12;74.60;100790.81;126042;1092;23698;-59
2021/07/08 01:44:47;;;;;;;3.73;1.00;;;;;;;17.10;74.65;100779.27;125968;1093;22792;-60
2021/07/08 01:47:19;;;;;;;4.45;0.90;;;;;;;17.10;74.67;100788.52;125936;1093;27204;-59
2021/07/08 01:49:51;;;;;;;3.85;0.70;;;;;;;17.12;74.62;100780.31;126199;1093;27629;-60
2021/07/08 01:52:23;;;;;;;4.60;1.00;;;;;;;17.12;74.76;100780.31;125935;1093;22887;-58
2021/07/08 01:54:54;;;;;;;3.10;0.75;;;;;;;17.11;74.86;100773.11;126123;1093;26369;-59
2021/07/08 01:57:27;;;;;;;2.00;0.60;;;;;;;17.07;75.10;100771.85;125981;1093;25854;-58
2021/07/08 01:59:58;;;;;;;3.80;0.80;;;;;;;17.01;75.46;100780.28;126107;1093;22863;-58
2021/07/08 02:02:29;;;;;;;5.27;0.83;;;;;;;16.98;75.68;100784.14;125992;1093;22751;-56
2021/07/08 02:05:01;;;;;;;2.80;0.80;;;;;;;16.93;75.60;100777.20;125984;1093;27164;-58
2021/07/08 02:07:32;;;;;;;2.20;0.70;;;;;;;16.86;75.71;100780.52;125992;1093;22828;-60
2021/07/08 02:10:04;;;;;;;3.60;0.80;;;;;;;16.80;75.80;100784.63;126072;1093;22842;-60
2021/07/08 02:12:37;;;;;;;4.65;0.90;;;;;;;16.77;75.94;100783.59;126467;1093;22755;-57
2021/07/08 02:15:11;;;;;;;5.50;1.10;;;;;;;16.78;75.79;100790.01;125998;1092;22768;-60
2021/07/08 02:17:43;;;;;;;4.15;0.90;;;;;;;16.79;75.82;100797.95;126064;1092;22791;-61
2021/07/08 02:20:16;;;;;;;2.10;0.80;;;;;;;16.84;76.67;100802.81;126033;1092;27266;-56
2021/07/08 02:22:49;;;;;;;5.55;1.00;;;;;;;16.87;76.46;100815.91;126336;1093;22981;-58
2021/07/08 02:25:23;;;;;;;5.03;0.97;;;;;;;16.90;75.88;100812.05;125975;1093;22839;-58
2021/07/08 02:27:55;;;;;;;4.30;1.00;;;;;;;16.94;76.23;100811.83;125959;1092;22813;-59
2021/07/08 02:30:28;;;;;;;5.55;1.10;;;;;;;16.98;76.46;100813.13;126046;1093;26347;-56
2021/07/08 02:33:00;;;;;;;5.60;1.10;;;;;;;17.02;76.15;100809.27;126137;1093;27689;-59
2021/07/08 02:35:31;;;;;;;5.50;1.10;;;;;;;17.04;76.40;100817.99;126038;1093;22758;-58
2021/07/08 02:38:03;;;;;;;4.90;1.25;;;;;;;17.05;76.48;100825.94;126006;1093;26454;-59
2021/07/08 02:40:38;;;;;;;3.80;1.05;;;;;;;17.07;76.62;100823.38;126177;1093;22784;-58
2021/07/08 02:43:11;;;;;;;5.60;1.10;;;;;;;17.08;76.69;100827.75;126026;1093;22788;-59
2021/07/08 02:45:44;;;;;;;6.20;1.15;;;;;;;17.10;77.03;100824.41;125989;1093;22835;-59
2021/07/08 02:48:17;;;;;;;4.65;1.20;;;;;;;17.12;76.85;100816.20;126154;1093;22855;-56
2021/07/08 02:50:51;;;;;;;3.30;1.05;;;;;;;17.14;76.82;100819.28;126060;1091;26930;-58
2021/07/08 02:53:24;;;;;;;3.75;1.30;;;;;;;17.15;76.92;100813.16;126030;1093;22836;-59
2021/07/08 02:55:56;;;;;;;8.80;1.50;;;;;;;17.17;77.45;100806.99;126162;1093;25922;-59
2021/07/08 02:58:27;;;;;;;6.05;1.50;;;;;;;17.15;77.18;100801.09;126064;1093;26229;-59
2021/07/08 03:00:58;;;;;;;4.75;1.25;;;;;;;17.12;77.27;100782.35;125961;1093;22708;-57
2021/07/08 03:03:31;;;;;;;5.55;1.60;;;;;;;17.11;77.20;100761.83;126015;1093;26508;-56
2021/07/08 03:06:02;;;;;;;4.50;1.20;;;;;;;17.09;77.10;100760.83;125978;1093;24478;-58
2021/07/08 03:08:34;;;;;;;4.37;1.33;;;;;;;17.10;77.45;100765.17;126031;1093;25487;-58
2021/07/08 03:11:06;;;;;;;5.40;1.65;;;;;;;17.08;77.31;100771.33;125987;1093;22777;-58
2021/07/08 03:13:42;;;;;;;5.40;1.40;;;;;;;17.01;77.43;100774.64;125995;1093;25970;-60
2021/07/08 03:16:13;;;;;;;6.65;1.50;;;;;;;16.94;78.02;100772.34;125974;1093;23028;-58
2021/07/08 03:18:44;;;;;;;3.75;1.30;;;;;;;16.91;78.17;100778.98;126147;1093;22835;-58
2021/07/08 03:21:18;;;;;;;8.30;1.45;;;;;;;16.88;77.83;100763.11;125982;1093;22778;-57
2021/07/08 03:23:49;;;;;;;4.90;1.40;;;;;;;16.85;78.33;100762.07;126124;1093;22768;-59
2021/07/08 03:26:25;;;;;;;4.15;1.40;;;;;;;16.86;77.84;100768.48;125984;1093;22857;-58
2021/07/08 03:28:57;;;;;;;4.95;1.50;;;;;;;16.90;77.85;100766.93;126109;1093;22768;-58
2021/07/08 03:31:29;;;;;;;7.05;1.50;;;;;;;16.93;77.94;100763.11;126236;1093;22851;-60
2021/07/08 03:34:01;;;;;;;6.17;1.20;;;;;;;16.96;78.27;100761.32;126146;1093;24455;-58
2021/07/08 03:36:32;;;;;;;7.80;1.80;;;;;;;17.01;78.43;100763.36;126158;1093;22789;-59
2021/07/08 03:39:03;;;;;;;4.15;1.40;;;;;;;17.02;77.97;100775.42;125984;1093;22781;-59
2021/07/08 03:41:35;;;;;;;5.90;1.85;;;;;;;17.04;78.15;100779.28;126559;1093;27613;-58
2021/07/08 03:44:07;;;;;;;8.60;1.90;;;;;;;17.05;78.46;100783.63;125975;1093;22757;-58
2021/07/08 03:46:40;;;;;;;7.85;1.85;;;;;;;17.06;78.25;100801.33;125975;1092;25845;-60
2021/07/08 03:49:12;;;;;;;5.83;1.53;;;;;;;17.04;78.71;100801.84;125843;1093;22818;-59
2021/07/08 03:51:43;;;;;;;7.70;1.80;;;;;;;17.01;78.75;100805.67;126002;1093;26626;-59
2021/07/08 03:54:15;;;;;;;7.05;1.90;;;;;;;17.00;78.90;100804.14;125905;1093;26519;-58
2021/07/08 03:56:46;;;;;;;5.30;1.80;;;;;;;16.99;78.51;100806.19;125799;1093;25845;-60
2021/07/08 03:59:18;;;;;;;7.25;2.10;;;;;;;17.01;78.60;100807.74;125789;1093;22794;-58
2021/07/08 04:01:49;;;;;;;6.05;2.20;;;;;;;17.03;79.01;100808.00;125837;1093;22768;-58
2021/07/08 04:04:20;;;;;;;8.05;2.10;;;;;;;17.06;78.57;100798.50;125849;1093;22892;-58
2021/07/08 04:06:52;;;;;;;5.55;1.30;;;;;;;17.04;78.59;100795.42;125790;1093;22766;-60
2021/07/08 04:09:23;;;;;;;7.90;2.00;;;;;;;17.03;78.72;100788.26;125989;1093;22805;-59
2021/07/08 04:11:56;;;;;;;7.30;1.90;;;;;;;17.05;78.63;100791.34;125900;1093;25829;-64
2021/07/08 04:14:30;;;;;;;6.83;1.50;;;;;;;17.08;78.79;100791.08;125816;1093;25948;-59
2021/07/08 04:17:05;;;;;;;4.55;1.40;;;;;;;17.09;78.59;100786.96;125858;1092;22768;-59
2021/07/08 04:19:36;;;;;;;4.25;1.45;;;;;;;17.12;78.89;100782.35;125877;1093;22757;-59
2021/07/08 04:22:08;;;;;;;4.05;1.30;;;;;;;17.16;78.55;100782.87;125895;1093;25830;-60
2021/07/08 04:24:43;;;;;;;5.40;1.50;;;;;;;17.19;78.68;100790.32;126031;1093;22835;-59
2021/07/08 04:27:17;;;;;;;4.90;1.50;;;;;;;17.22;78.89;100789.28;125703;1092;22847;-60
2021/07/08 04:29:49;;;;;;;6.20;1.60;;;;;;;17.20;78.96;100792.63;125762;1093;22778;-60
2021/07/08 04:32:21;;;;;;;5.00;1.55;;;;;;;17.20;78.46;100794.67;125649;1093;22769;-60
2021/07/08 04:34:55;;;;;;;4.20;1.40;;;;;;;17.20;79.02;100795.45;125721;1093;24543;-59
2021/07/08 04:37:27;;;;;;;6.27;1.53;;;;;;;17.24;78.99;100784.67;125697;1093;22838;-62
2021/07/08 04:39:59;;;;;;;6.45;1.65;;;;;;;17.28;78.81;100790.05;125692;1091;22761;-62
2021/07/08 04:42:30;;;;;;;6.60;1.70;;;;;;;17.34;78.88;100785.20;125696;1093;22842;-61
2021/07/08 04:45:03;;;;;;;5.00;1.70;;;;;;;17.35;78.62;100779.05;125734;1092;22791;-62
2021/07/08 04:47:34;;;;;;;9.63;1.50;;;;;;;17.41;78.46;100781.86;125883;1093;22843;-61
2021/07/08 04:50:09;;;;;;;6.40;1.70;;;;;;;17.43;78.51;100785.71;125888;1093;24734;-59
2021/07/08 04:52:40;;;;;;;6.30;1.50;;;;;;;17.46;79.13;100787.48;125805;1093;23425;-58
2021/07/08 04:55:16;;;;;;;7.10;1.80;;;;;;;17.48;78.97;100790.59;125670;1093;22870;-59
2021/07/08 04:57:48;;;;;;;6.80;2.05;;;;;;;17.51;78.75;100800.09;125781;1093;25942;-60
2021/07/08 05:00:22;;;;;;;6.30;2.00;;;;;;;17.53;78.82;100792.66;125661;1093;26261;-60
2021/07/08 05:02:57;;;;;;;5.15;1.80;;;;;;;17.56;78.98;100791.64;125808;1093;27196;-60
2021/07/08 05:05:28;;;;;;;6.00;2.20;;;;;;;17.59;78.84;100789.83;125742;1093;22838;-60
2021/07/08 05:07:59;;;;;;;7.55;2.60;;;;;;;17.59;79.19;100784.18;125772;1093;22765;-60
2021/07/08 05:10:31;;;;;;;7.30;2.20;;;;;;;17.59;78.72;100781.36;125652;1093;22770;-60
2021/07/08 05:13:02;;;;;;;6.65;1.90;;;;;;;17.52;78.47;100779.84;125749;1091;22795;-60
2021/07/08 05:15:37;;;;;;;9.87;2.27;;;;;;;17.53;78.95;100772.90;125748;1092;22768;-59
2021/07/08 05:18:09;;;;;;;6.77;2.30;;;;;;;17.53;78.69;100769.30;125792;1093;22992;-60
2021/07/08 05:20:41;;;;;;;10.40;3.07;;;;;;;17.53;78.77;100764.43;125722;1093;22773;-59
2021/07/08 05:23:16;;;;;;;12.10;3.60;;;;;;;17.54;78.72;100768.80;125816;1093;22787;-61
2021/07/08 05:25:50;;;;;;;13.50;3.53;;;;;;;17.54;78.81;100765.98;125781;1093;22816;-61
2021/07/08 05:28:22;;;;;;;11.75;3.45;;;;;;;17.59;78.92;100753.90;125800;1093;22767;-60
2021/07/08 05:30:54;;;;;;;8.60;2.95;;;;;;;17.58;78.66;100760.07;125802;1093;22962;-60
2021/07/08 05:33:25;;;;;;;8.25;2.75;;;;;;;17.51;79.17;100761.35;125776;1093;27606;-61
2021/07/08 05:35:56;;;;;;;10.35;3.00;;;;;;;17.48;79.01;100765.19;125678;1092;27217;-60
2021/07/08 05:38:28;;;;;;;11.83;4.57;;;;;;;17.48;79.34;100767.23;125750;1093;22995;-61
2021/07/08 05:41:00;;;;;;;11.80;4.65;;;;;;;17.46;79.04;100764.16;125722;1092;22790;-60
2021/07/08 05:43:31;;;;;;;13.10;5.15;;;;;;;17.45;79.25;100766.20;125721;1093;22800;-61
2021/07/08 05:46:03;;;;;;;10.80;4.95;;;;;;;17.46;79.29;100767.73;125730;1093;22853;-61
2021/07/08 05:48:35;;;;;;;13.77;5.20;;;;;;;17.51;79.21;100771.88;125833;1093;22767;-61
2021/07/08 05:51:07;;;;;;;12.00;5.50;;;;;;;17.56;79.65;100760.59;125683;1093;27313;-60
2021/07/08 05:53:38;;;;;;;14.13;4.53;;;;;;;17.64;79.28;100758.78;125779;1091;22757;-61
2021/07/08 05:56:09;;;;;;;11.65;5.50;;;;;;;17.73;79.75;100760.56;125812;1093;25877;-60
2021/07/08 05:58:44;;;;;;;14.10;5.55;;;;;;;17.82;79.54;100759.50;125874;1093;26257;-61
2021/07/08 06:01:15;;;;;;;11.30;5.70;;;;;;;17.92;78.94;100769.26;125700;1093;22784;-60
2021/07/08 06:03:47;;;;;;;14.13;5.57;;;;;;;17.99;78.63;100777.18;125756;1093;27150;-61
2021/07/08 06:06:19;;;;;;;14.20;6.00;;;;;;;18.03;78.79;100781.28;125875;1093;25919;-61
2021/07/08 06:09:05;;;;;;;12.67;5.63;;;;;;;18.06;79.10;100794.39;125741;1093;22784;-59
2021/07/08 06:11:37;;;;;;;14.50;5.50;;;;;;;18.07;78.70;100800.79;125760;1093;27182;-60
2021/07/08 06:14:09;;;;;;;14.43;6.47;;;;;;;18.07;78.87;100800.79;125987;1093;22847;-62
2021/07/08 06:16:47;;;;;;;12.85;5.50;;;;;;;18.07;78.76;100804.39;125895;1092;22773;-60
2021/07/08 06:19:26;;;;;;;15.27;6.17;;;;;;;18.17;78.82;100808.47;125759;1093;25922;-60
2021/07/08 06:21:58;;;;;;;16.40;6.53;;;;;;;18.22;78.95;100815.39;125687;1093;22855;-60
2021/07/08 06:24:29;;;;;;;13.97;6.07;;;;;;;18.24;78.67;100819.25;125689;1093;25961;-60
2021/07/08 06:27:00;;;;;;;13.00;6.17;;;;;;;18.29;78.88;100814.88;125687;1093;22845;-60
2021/07/08 06:29:32;;;;;;;16.80;6.40;;;;;;;18.31;78.88;100809.47;125676;1093;24427;-61
2021/07/08 06:32:03;;;;;;;12.53;5.80;;;;;;;18.40;79.06;100814.81;125781;1092;22784;-60
2021/07/08 06:34:35;;;;;;;16.60;5.73;;;;;;;18.47;78.07;100809.44;125747;1092;22766;-61
2021/07/08 06:37:06;;;;;;;12.87;5.23;;;;;;;18.55;78.21;100812.48;125836;1093;22769;-60
2021/07/08 06:39:38;;;;;;;13.83;5.50;;;;;;;18.60;78.20;100820.18;125676;1093;22762;-60
2021/07/08 06:42:10;;;;;;;12.10;4.85;;;;;;;18.64;78.23;100825.55;125802;1092;22896;-61
2021/07/08 06:44:42;;;;;;;12.47;5.80;;;;;;;18.65;78.25;100827.85;125660;1092;27188;-61
2021/07/08 06:47:16;;;;;;;14.27;5.83;;;;;;;18.68;78.04;100820.39;125647;1093;22797;-61
2021/07/08 06:49:50;;;;;;;10.40;4.57;;;;;;;18.75;77.98;100822.66;126080;1093;22758;-62
2021/07/08 06:52:25;;;;;;;11.80;4.63;;;;;;;18.80;77.41;100816.98;125684;1092;22761;-61
2021/07/08 06:54:57;;;;;;;12.60;4.85;;;;;;;18.87;77.67;100813.59;125705;1092;22787;-61
2021/07/08 06:57:28;;;;;;;10.50;4.77;;;;;;;18.93;77.42;100802.26;125666;1093;22792;-61
2021/07/08 07:00:00;;;;;;;11.85;5.53;;;;;;;19.00;77.68;100813.78;125724;1091;22767;-62
2021/07/08 07:02:33;;;;;;;11.10;5.13;;;;;;;19.12;77.42;100806.75;126179;1093;22790;-61
2021/07/08 07:05:08;;;;;;;11.83;4.90;;;;;;;19.29;77.48;100804.58;125698;1092;22742;-61
2021/07/08 07:07:40;;;;;;;11.90;5.45;;;;;;;19.40;76.86;100806.58;125989;1093;27185;-61
2021/07/08 07:10:12;;;;;;;12.28;5.43;;;;;;;19.41;76.75;100808.10;125699;1093;22774;-61
2021/07/08 07:12:45;;;;;;;10.95;4.70;;;;;;;19.42;76.59;100808.88;125876;1092;22790;-61
2021/07/08 07:15:18;;;;;;;10.23;4.43;;;;;;;19.49;76.27;100796.99;125690;1092;22797;-62
2021/07/08 07:17:50;;;;;;;11.03;5.07;;;;;;;19.55;76.19;100801.31;125694;1092;22768;-61
2021/07/08 07:20:23;;;;;;;11.00;5.18;;;;;;;19.60;76.23;100796.88;125715;1093;22761;-61
2021/07/08 07:22:54;;;;;;;11.40;5.10;;;;;;;19.64;76.13;100805.84;125931;1093;27283;-59
2021/07/08 07:25:27;;;;;;;11.53;5.90;;;;;;;19.66;76.24;100801.20;125678;1093;22778;-61
2021/07/08 07:27:59;;;;;;;13.10;5.23;;;;;;;19.65;75.95;100805.34;125773;1093;22784;-61
2021/07/08 07:30:31;;;;;;;10.73;4.65;;;;;;;19.68;75.79;100811.99;125703;1093;25845;-61
2021/07/08 07:33:02;;;;;;;10.58;5.73;;;;;;;19.72;76.01;100813.24;125808;1093;25829;-60
2021/07/08 07:35:34;;;;;;;9.80;4.85;;;;;;;19.70;75.73;100815.09;125730;1093;22766;-61
2021/07/08 07:38:11;;;;;;;12.30;4.70;;;;;;;19.68;75.77;100798.60;125826;1093;22767;-61
2021/07/08 07:40:43;;;;;;;10.38;4.85;;;;;;;19.71;75.65;100800.39;125641;1093;25960;-61
2021/07/08 07:43:15;;;;;;;10.45;4.73;;;;;;;19.74;75.44;100795.73;125592;1093;26213;-61
2021/07/08 07:45:50;;;;;;;10.93;4.98;;;;;;;19.77;75.16;100786.94;125698;1093;22781;-61
2021/07/08 07:48:21;;;;;;;10.45;4.00;;;;;;;19.83;74.93;100786.88;125838;1093;25846;-61
2021/07/08 07:50:53;;;;;;;9.68;4.15;;;;;;;19.82;74.69;100794.59;125677;1093;26639;-61
2021/07/08 07:53:25;;;;;;;9.88;4.00;;;;;;;19.83;74.71;100779.15;125691;1093;22769;-61
2021/07/08 07:55:56;;;;;;;13.20;4.00;;;;;;;19.84;74.68;100777.09;126094;1093;27207;-61
2021/07/08 07:58:30;;;;;;;11.83;4.00;;;;;;;19.88;74.49;100797.40;125673;1093;22761;-60
2021/07/08 08:01:01;;;;;;;10.50;3.95;;;;;;;19.91;74.81;100793.48;125702;1093;22816;-61
2021/07/08 08:03:32;;;;;;;8.55;4.10;;;;;;;19.93;74.33;100779.55;125748;1093;28211;-61
2021/07/08 08:08:53;;;;;;;11.53;4.58;;;;;;;19.86;74.42;100780.91;125708;1093;22992;-61
2021/07/08 08:11:24;;;;;;;13.83;5.05;;;;;;;19.87;74.64;100779.62;125666;1093;25852;-61
2021/07/08 08:13:56;;;;;;;13.10;5.75;;;;;;;19.84;74.40;100788.42;125748;1093;22797;-62
2021/07/08 08:16:28;;;;;;;9.75;5.03;;;;;;;19.82;74.20;100783.27;125621;1093;22798;-62
2021/07/08 08:19:02;;;;;;;14.53;5.50;;;;;;;19.84;74.08;100775.00;125732;1093;22784;-61
2021/07/08 08:21:33;;;;;;;13.48;6.60;;;;;;;19.86;73.94;100783.73;125668;1093;22774;-60
2021/07/08 08:24:06;;;;;;;11.45;6.78;;;;;;;19.90;74.36;100781.41;125677;1093;22804;-62
2021/07/08 08:26:38;;;;;;;15.43;5.83;;;;;;;19.97;74.25;100782.86;125632;1092;22838;-61
2021/07/08 08:29:09;;;;;;;12.13;6.43;;;;;;;20.02;74.24;100784.88;125604;1092;22804;-61
2021/07/08 08:31:41;;;;;;;10.68;5.53;;;;;;;20.05;73.93;100793.08;125685;1093;28213;-60
2021/07/08 08:34:12;;;;;;;13.43;5.38;;;;;;;20.11;73.91;100790.20;125584;1093;27433;-61
2021/07/08 08:36:47;;;;;;;13.80;5.48;;;;;;;20.19;73.86;100802.47;125779;1093;24469;-60
2021/07/08 08:39:19;;;;;;;11.73;4.88;;;;;;;20.25;73.78;100806.05;125689;1092;22845;-60
2021/07/08 08:41:50;;;;;;;9.13;4.88;;;;;;;20.32;73.65;100805.42;125743;1093;22862;-61
2021/07/08 08:44:22;;;;;;;14.00;6.30;;;;;;;20.34;73.63;100804.91;125639;1093;22770;-61
2021/07/08 08:46:55;;;;;;;9.73;5.00;;;;;;;20.35;73.53;100809.27;125673;1093;22764;-60
2021/07/08 08:49:28;;;;;;;11.43;5.13;;;;;;;20.42;73.47;100798.08;125806;1092;26261;-60
2021/07/08 08:51:58;;;;;;;11.93;5.83;;;;;;;;;;125741;1092;22761;-61
2021/07/08 08:54:33;;;;;;;13.00;5.10;;;;;;;20.51;73.44;100803.39;125870;1093;22914;-60
2021/07/08 08:57:06;;;;;;;13.40;4.38;;;;;;;20.61;73.50;100795.30;125656;1093;22794;-61
2021/07/08 08:59:38;;;;;;;8.80;4.30;;;;;;;20.68;73.27;100794.67;125762;1093;27558;-60
2021/07/08 09:02:17;;;;;;;11.18;5.28;;;;;;;20.72;72.79;100806.48;125885;1092;22791;-61
2021/07/08 09:04:53;;;;;;;11.50;5.85;;;;;;;20.79;73.73;100812.33;126049;1093;22823;-62
2021/07/08 09:07:32;;;;;;;10.60;4.75;;;;;;;20.92;73.23;100820.13;125657;1093;22792;-60
2021/07/08 09:10:15;;;;;;;8.73;4.08;;;;;;;21.04;72.77;100820.78;125682;1093;22792;-62
2021/07/08 09:13:01;;;;;;;10.30;4.60;;;;;;;21.09;72.87;100829.20;125759;1093;22761;-60
2021/07/08 09:15:34;;;;;;;11.08;4.65;;;;;;;21.15;72.90;100829.11;125707;1093;22745;-61
2021/07/08 09:18:06;;;;;;;10.73;4.93;;;;;;;21.21;72.67;100827.73;125661;1092;25935;-59
2021/07/08 09:20:38;;;;;;;9.55;4.38;;;;;;;21.31;72.59;100819.59;125878;1092;22802;-61
2021/07/08 09:23:19;;;;;;;9.75;3.93;;;;;;;21.43;72.18;100809.59;125826;1093;22833;-61
2021/07/08 09:25:51;;;;;;;9.33;3.38;;;;;;;21.61;71.94;100809.53;125755;1093;22841;-59
2021/07/08 09:28:26;;;;;;;9.73;3.53;;;;;;;21.73;71.92;100816.55;125694;1093;27459;-61
2021/07/08 09:31:03;;;;;;;7.73;3.83;;;;;;;21.84;71.68;100820.53;125778;1093;22787;-62
2021/07/08 09:33:42;;;;;;;11.25;6.08;;;;;;;21.92;70.93;100827.10;125752;1092;22796;-61
2021/07/08 09:36:17;;;;;;;8.80;4.40;;;;;;;21.78;70.92;100822.68;125749;1092;22819;-61
2021/07/08 09:38:50;;;;;;;12.20;5.00;;;;;;;21.80;70.99;100815.15;125825;1093;22707;-61
2021/07/08 09:41:25;;;;;;;8.53;3.88;;;;;;;21.82;71.03;100808.94;125976;1093;22931;-66
2021/07/08 09:44:00;;;;;;;8.30;3.75;;;;;;;21.84;70.86;100812.00;126211;1093;23311;-67
2021/07/08 09:46:39;;;;;;;6.88;2.68;;;;;;;21.86;70.55;100801.63;125823;1092;22767;-64
2021/07/08 09:49:13;;;;;;;10.10;4.15;;;;;;;21.88;70.32;100799.01;125738;1092;22801;-60
2021/07/08 09:51:46;;;;;;;9.38;3.03;;;;;;;21.86;70.56;100807.31;125934;1092;23424;-62
2021/07/08 09:54:42;;;;;;;12.60;4.10;;;;;;;21.84;70.69;100807.09;125870;1092;26233;-61
2021/07/08 09:57:40;;;;;;;8.93;4.08;;;;;;;21.83;70.18;100799.12;125816;1092;27711;-61
2021/07/08 10:00:33;;;;;;;8.50;3.38;;;;;;;21.88;70.27;100799.01;126798;1093;22767;-61
2021/07/08 10:03:07;;;;;;;6.73;3.37;;;;;;;21.93;70.28;100800.22;125879;1093;27645;-62
2021/07/08 10:05:41;;;;;;;11.65;4.23;;;;;;;21.99;70.51;100798.04;125938;1093;29301;-61
2021/07/08 10:08:13;;;;;;;10.13;4.25;;;;;;;22.01;70.32;100795.41;125788;1092;27109;-60
2021/07/08 10:10:45;;;;;;;10.25;4.10;;;;;;;22.05;70.25;100785.25;125895;1093;22761;-61
2021/07/08 10:13:19;;;;;;;11.78;4.25;;;;;;;22.12;70.77;100790.27;125818;1092;26223;-60
2021/07/08 10:15:54;;;;;;;8.75;3.73;;;;;;;22.24;70.61;100796.52;125824;1093;22760;-59
2021/07/08 10:18:27;;;;;;;11.10;4.80;;;;;;;22.33;70.06;100793.99;125885;1093;22791;-60
2021/07/08 10:20:59;;;;;;;11.63;5.10;;;;;;;22.47;69.75;100789.07;126099;1093;22764;-60
2021/07/08 10:23:34;;;;;;;10.53;4.80;;;;;;;22.59;69.50;100789.62;125727;1093;24457;-61
2021/07/08 10:26:09;;;;;;;11.35;4.70;;;;;;;22.73;69.25;100774.04;125934;1093;22768;-59
2021/07/08 10:28:46;;;;;;;7.45;3.78;;;;;;;22.84;69.41;100770.95;125806;1093;22824;-59
2021/07/08 10:31:22;;;;;;;8.70;4.80;;;;;;;22.94;68.88;100755.70;125779;1093;22758;-61
2021/07/08 10:34:11;;;;;;;9.37;5.00;;;;;;;23.06;68.55;100745.56;125752;1093;25729;-61
2021/07/08 10:36:47;;;;;;;11.98;5.08;;;;;;;23.17;68.28;100755.93;125952;1093;22815;-61
2021/07/08 10:39:21;;;;;;;9.80;4.15;;;;;;;23.23;68.02;100745.94;125933;1092;25755;-61
2021/07/08 10:41:57;;;;;;;8.60;3.45;;;;;;;23.26;67.83;100741.19;125873;1092;24623;-62
2021/07/08 10:44:52;;;;;;;11.70;5.40;;;;;;;23.25;67.67;100740.45;125953;1093;22763;-61
2021/07/08 10:47:43;;;;;;;8.38;3.78;;;;;;;23.24;67.77;100758.84;126088;1093;22760;-61
2021/07/08 10:50:39;;;;;;;11.38;3.60;;;;;;;23.22;67.58;100747.23;126320;1093;22838;-61
2021/07/08 10:53:27;;;;;;;9.33;4.73;;;;;;;23.18;67.31;100728.96;125926;1093;22745;-60
2021/07/08 10:56:01;;;;;;;9.53;3.83;;;;;;;23.22;67.05;100726.53;125834;1092;22767;-61
2021/07/08 10:58:42;;;;;;;8.20;3.63;;;;;;;23.23;66.83;100740.23;125944;1093;27189;-61
2021/07/08 11:01:46;;;;;;;11.88;4.50;;;;;;;23.26;66.91;100749.73;125849;1093;26216;-60
2021/07/08 11:04:38;;;;;;;8.35;3.55;;;;;;;23.30;67.20;100753.00;125782;1093;27241;-61
2021/07/08 11:07:24;;;;;;;10.33;4.63;;;;;;;23.38;67.02;100751.03;125799;1092;22742;-62
2021/07/08 11:10:02;;;;;;;7.05;3.78;;;;;;;23.47;67.00;100756.23;125784;1093;22795;-59
2021/07/08 11:12:36;;;;;;;11.43;3.68;;;;;;;23.55;66.72;100753.43;125821;1093;22858;-60
2021/07/08 11:15:10;;;;;;;15.07;5.43;;;;;;;23.51;66.26;100741.62;126097;1092;22748;-61
2021/07/08 11:17:45;;;;;;;9.05;3.88;;;;;;;23.47;66.43;100721.26;126018;1093;22851;-61
2021/07/08 11:20:41;;;;;;;9.55;3.95;;;;;;;23.46;66.24;100720.52;125874;1092;22845;-61
2021/07/08 11:23:48;;;;;;;9.48;4.18;;;;;;;23.49;66.29;100712.91;125999;1093;22823;-62
2021/07/08 11:26:54;;;;;;;11.73;4.88;;;;;;;23.50;66.25;100705.91;126066;1093;22761;-62
2021/07/08 11:29:40;;;;;;;9.83;4.48;;;;;;;23.46;66.08;100705.50;125903;1093;22761;-61
2021/07/08 11:32:27;;;;;;;10.23;3.43;;;;;;;23.46;66.26;100711.20;125957;1092;25978;-62
2021/07/08 11:35:10;;;;;;;9.98;5.45;;;;;;;23.51;66.00;100705.34;125835;1093;22819;-63
2021/07/08 11:37:53;;;;;;;9.73;4.20;;;;;;;23.48;66.10;100705.70;126076;1092;23411;-62
2021/07/08 11:40:28;;;;;;;7.37;3.03;;;;;;;23.45;66.02;100699.03;125891;1092;22813;-61
2021/07/08 11:43:13;;;;;;;9.88;4.25;;;;;;;23.48;66.05;100691.45;125756;1093;22767;-61
2021/07/08 11:45:45;;;;;;;14.53;4.18;;;;;;;23.51;65.92;100696.02;125855;1093;22751;-61
2021/07/08 11:48:26;;;;;;;12.90;5.03;;;;;;;23.62;65.81;100701.43;125891;1093;22767;-61